Aviation Digital Data Service (ADDS)

Output produced by METARs form (1020 UTC 07 December 2022)
found at http://www.aviationweather.gov/metar/data/
 
KJVW 071015Z AUTO 19007KT 10SM OVC013 21/21 A3019 RMK AO2
KJVW 070955Z AUTO 20007G12KT 10SM BKN009 OVC012 21/21 A3018 RMK AO2
KJVW 070935Z AUTO 19006KT 10SM OVC009 21/21 A3017 RMK AO2
KJVW 070915Z AUTO 19008KT 10SM OVC010 21/21 A3017 RMK AO2
KJVW 070855Z AUTO 20006G11KT 10SM OVC009 21/21 A3017 RMK AO2
KJVW 070835Z AUTO 20007KT 10SM OVC008 21/21 A3016 RMK AO2
KJVW 070815Z AUTO 19006KT 10SM OVC008 21/21 A3016 RMK AO2
KJVW 070755Z AUTO 18005G10KT 10SM BKN009 BKN050 21/21 A3016 RMK AO2
KJVW 070735Z AUTO 19004KT 10SM FEW009 SCT048 21/21 A3015 RMK AO2
KJVW 070715Z AUTO 18006KT 10SM SCT046 21/21 A3014 RMK AO2
KJVW 070655Z AUTO 18005KT 10SM FEW044 21/21 A3014 RMK AO2
KJVW 070635Z AUTO 19006KT 10SM CLR 22/22 A3014 RMK AO2
KJVW 070615Z AUTO 19006KT 10SM FEW090 FEW110 22/22 A3013 RMK AO2
KJVW 070555Z AUTO VRB05KT 10SM CLR 22/22 A3013 RMK AO2
KJVW 070535Z AUTO 18005KT 10SM SCT045 BKN055 BKN080 22/22 A3013 RMK AO2
KJVW 070515Z AUTO 19005G10KT 10SM FEW034 BKN049 OVC095 22/22 A3013 RMK AO2
KJVW 070455Z AUTO 20007KT 10SM SCT045 SCT075 BKN120 22/22 A3012 RMK AO2
KJVW 070435Z AUTO VRB06G11KT 10SM CLR 22/22 A3012 RMK AO2
KJVW 070415Z AUTO VRB06G11KT 10SM CLR 22/22 A3011 RMK AO2
KJVW 070355Z AUTO 18007KT 10SM FEW050 22/22 A3010 RMK AO2
KJVW 070335Z AUTO VRB05KT 10SM FEW033 FEW041 BKN050 23/23 A3010 RMK AO2
KJVW 070315Z AUTO 19004G10KT 10SM SCT032 BKN040 OVC055 23/23 A3010 RMK AO2
KJVW 070255Z AUTO 19006KT 10SM SCT033 BKN040 OVC050 23/23 A3009 RMK AO2
KJVW 070235Z AUTO 17006KT 10SM SCT034 BKN041 OVC050 23/23 A3008 RMK AO2
KJVW 070215Z AUTO 17004KT 10SM BKN035 OVC041 23/23 A3007 RMK AO2
KJVW 070155Z AUTO 16005KT 10SM BKN034 OVC041 23/23 A3007 RMK AO2
KJVW 070135Z AUTO 16005KT 10SM SCT037 OVC055 23/23 A3006 RMK AO2
KJVW 070115Z AUTO 15005KT 10SM OVC060 23/23 A3006 RMK AO2
KJVW 070055Z AUTO 14003KT 10SM FEW037 FEW050 OVC060 23/23 A3006 RMK AO2
KJVW 070035Z AUTO 00000KT 10SM FEW037 SCT048 OVC060 22/22 A3006 RMK AO2
KJVW 070015Z AUTO 00000KT 10SM SCT046 OVC055 23/21 A3006 RMK AO2
KJVW 062355Z AUTO 17004KT 10SM OVC055 24/20 A3005 RMK AO2
KJVW 062335Z AUTO 18004KT 10SM OVC055 24/19 A3005 RMK AO2
KJVW 062315Z AUTO 18005KT 10SM BKN055 24/19 A3004 RMK AO2
KJVW 062255Z AUTO 17004KT 10SM FEW050 FEW060 24/19 A3003 RMK AO2
KJVW 062235Z AUTO 19007KT 10SM FEW048 SCT060 25/18 A3003 RMK AO2
KJVW 062215Z AUTO 17005KT 10SM SCT046 BKN060 26/18 A3003 RMK AO2
KJVW 062155Z AUTO 18004KT 10SM BKN046 BKN055 26/18 A3002 RMK AO2
KJVW 062135Z AUTO 20007G13KT 10SM CLR 26/18 A3002 RMK AO2
KJVW 062115Z AUTO 21009KT 10SM FEW042 FEW048 SCT060 26/18 A3002 RMK AO2
KJVW 062055Z AUTO 21008G15KT 10SM FEW042 SCT047 BKN060 26/18 A3002 RMK AO2
KJVW 062035Z AUTO 21011G18KT 10SM FEW039 SCT048 SCT060 27/18 A3002 RMK AO2
KJVW 062015Z AUTO 21008G16KT 10SM SCT038 BKN045 BKN050 26/19 A3002 RMK AO2
KJVW 061955Z AUTO 21009G14KT 10SM BKN049 BKN055 26/19 A3001 RMK AO2
KJVW 061935Z AUTO 21011KT 10SM SCT050 BKN055 26/19 A3001 RMK AO2
KJVW 061915Z AUTO 21011G17KT 10SM FEW041 BKN050 BKN055 26/19 A3002 RMK AO2
KJVW 061855Z AUTO 22009G16KT 10SM BKN047 OVC055 26/19 A3003 RMK AO2
KJVW 061835Z AUTO 23008KT 10SM BKN047 OVC050 25/21 A3003 RMK AO2
KJVW 061815Z AUTO 21008G15KT 10SM SCT050 25/23 A3003 RMK AO2
KJVW 061755Z AUTO 20008G14KT 10SM SCT050 SCT055 25/25 A3004 RMK AO2
KJVW 061735Z AUTO 21009G16KT 10SM FEW029 FEW050 25/25 A3005 RMK AO2
KJVW 061715Z AUTO 21013KT 10SM FEW024 SCT029 BKN048 26/26 A3006 RMK AO2
KJVW 061655Z AUTO 22010G15KT 10SM SCT026 BKN034 BKN044 25/25 A3006 RMK AO2
KJVW 061635Z AUTO 21011G17KT 10SM FEW022 SCT029 BKN034 24/24 A3006 RMK AO2
KJVW 061615Z AUTO VRB06G14KT 10SM SCT020 BKN027 BKN036 23/23 A3007 RMK AO2
KJVW 061555Z AUTO 19011KT 10SM BKN019 BKN027 OVC033 23/23 A3007 RMK AO2
KJVW 061535Z AUTO 18010G18KT 150V210 10SM BKN018 BKN024 OVC047 23/23 A3006 RMK AO2
KJVW 061515Z AUTO 19009KT 10SM BKN017 BKN023 OVC045 23/23 A3006 RMK AO2
KJVW 061455Z AUTO 17008G15KT 10SM BKN015 OVC021 22/22 A3005 RMK AO2
KJVW 061435Z AUTO 18004KT 10SM SCT015 SCT023 SCT048 22/22 A3005 RMK AO2
KJVW 061415Z AUTO 19006G12KT 10SM FEW017 FEW027 SCT048 21/21 A3004 RMK AO2
KJVW 061355Z AUTO 18008KT 10SM SCT026 BKN048 21/21 A3004 RMK AO2
KJVW 061315Z AUTO 17005KT 10SM BKN016 BKN021 OVC025 21/21 A3003 RMK AO2
KJVW 061255Z AUTO 17004KT 10SM SCT017 BKN023 OVC050 21/21 A3003 RMK AO2
KJVW 061235Z AUTO 18005KT 10SM BKN050 OVC055 21/21 A3002 RMK AO2
KJVW 061215Z AUTO 18007KT 10SM OVC050 21/21 A3001 RMK AO2
KJVW 061155Z AUTO 18006G12KT 10SM OVC050 21/21 A3001 RMK AO2
KJVW 061135Z AUTO 17006KT 10SM FEW018 SCT033 OVC050 21/21 A3000 RMK AO2
KJVW 061115Z AUTO 18006KT 10SM SCT019 BKN031 OVC055 21/21 A2999 RMK AO2
KJVW 061055Z AUTO 17007KT 10SM BKN020 OVC027 21/21 A2999 RMK AO2
KJVW 061035Z AUTO 17005KT 10SM BKN021 OVC026 21/21 A2999 RMK AO2
KJVW 061015Z AUTO 16004KT 10SM FEW017 OVC022 21/21 A2998 RMK AO2
KJVW 060955Z AUTO 18005KT 10SM BKN018 OVC023 21/21 A2999 RMK AO2
KJVW 060935Z AUTO VRB04KT 10SM SCT017 BKN022 OVC046 21/21 A2998 RMK AO2
KJVW 060915Z AUTO 17006KT 10SM FEW020 SCT026 BKN034 21/21 A2998 RMK AO2
KJVW 060855Z AUTO 17004KT 10SM SCT016 BKN044 OVC049 21/21 A2998 RMK AO2
KJVW 060835Z AUTO 18005KT 10SM SCT016 OVC048 21/21 A2998 RMK AO2
KJVW 060815Z AUTO 18007KT 10SM FEW014 OVC047 21/21 A2997 RMK AO2
KJVW 060715Z AUTO 17010KT 10SM BKN023 BKN027 OVC041 21/21 A2996 RMK AO2
KJVW 060655Z AUTO 17007G12KT 10SM BKN020 BKN026 OVC041 21/21 A2996 RMK AO2
KJVW 060635Z AUTO 17006KT 10SM OVC017 21/21 A2996 RMK AO2
KJVW 060615Z AUTO 17006KT 10SM OVC015 21/21 A2996 RMK AO2
KJVW 060555Z AUTO 18006KT 10SM BKN015 BKN043 20/20 A2996 RMK AO2
KJVW 060535Z AUTO 16005KT 10SM FEW012 FEW016 FEW043 20/20 A2996 RMK AO2
KJVW 060515Z AUTO 17005KT 10SM SCT012 SCT025 SCT035 20/20 A2996 RMK AO2
KJVW 060455Z AUTO 17006KT 10SM SCT012 21/21 A2996 RMK AO2
KJVW 060435Z AUTO 18005KT 10SM OVC012 20/20 A2995 RMK AO2
KJVW 060415Z AUTO 16007KT 10SM OVC013 21/21 A2995 RMK AO2
KJVW 060355Z AUTO 16005KT 10SM OVC018 21/21 A2995 RMK AO2
KJVW 060335Z AUTO VRB05G11KT 10SM FEW014 OVC019 21/21 A2994 RMK AO2
KJVW 060315Z AUTO 16005KT 10SM SCT014 SCT020 BKN065 21/21 A2994 RMK AO2
KJVW 060255Z AUTO 16005KT 10SM FEW024 SCT034 OVC065 21/21 A2994 RMK AO2
KJVW 060235Z AUTO 16005KT 10SM BKN024 BKN028 OVC034 21/21 A2994 RMK AO2
KJVW 060215Z AUTO 16005KT 10SM SCT024 OVC070 20/20 A2994 RMK AO2
KJVW 060155Z AUTO 16004KT 10SM SCT060 OVC070 21/21 A2994 RMK AO2
KJVW 060135Z AUTO VRB04KT 10SM FEW050 FEW060 OVC075 20/20 A2994 RMK AO2
KJVW 060115Z AUTO 12005KT 10SM FEW029 SCT042 BKN055 20/20 A2993 RMK AO2
KJVW 060055Z AUTO 00000KT 10SM SCT029 OVC050 19/19 A2994 RMK AO2
KJVW 060035Z AUTO 11004KT 10SM BKN055 OVC065 19/19 A2993 RMK AO2
KJVW 060015Z AUTO 00000KT 10SM BKN055 BKN065 OVC075 20/20 A2993 RMK AO2
KJVW 052355Z AUTO 00000KT 10SM OVC055 20/20 A2994 RMK AO2
KJVW 052335Z AUTO 12004KT 10SM OVC060 20/20 A2993 RMK AO2
KJVW 052315Z AUTO 12003KT 10SM FEW027 FEW035 OVC060 21/21 A2993 RMK AO2
KJVW 052255Z AUTO 00000KT 10SM BKN026 BKN035 OVC070 21/21 A2994 RMK AO2
KJVW 052235Z AUTO 16003KT 10SM OVC070 22/22 A2993 RMK AO2
KJVW 052215Z AUTO 15004KT 10SM OVC070 22/22 A2993 RMK AO2
KJVW 052155Z AUTO 17004KT 10SM OVC070 22/22 A2993 RMK AO2
KJVW 052135Z AUTO 16006KT 10SM OVC070 22/22 A2993 RMK AO2
KJVW 052115Z AUTO 18007G12KT 10SM OVC070 22/22 A2993 RMK AO2
KJVW 052055Z AUTO 18005G11KT 10SM OVC070 22/22 A2992 RMK AO2
KJVW 052035Z AUTO 18009KT 10SM FEW019 OVC065 22/22 A2993 RMK AO2
KJVW 052015Z AUTO 19006G11KT 10SM FEW019 OVC060 21/21 A2993 RMK AO2
KJVW 051955Z AUTO 18009KT 10SM FEW018 SCT022 OVC060 21/21 A2994 RMK AO2
KJVW 051935Z AUTO 20008KT 170V230 10SM BKN018 BKN022 OVC065 21/21 A2994 RMK AO2
KJVW 051915Z AUTO 19007KT 150V220 10SM BKN017 OVC065 21/21 A2995 RMK AO2
KJVW 051855Z AUTO 19007KT 10SM BKN016 OVC060 21/21 A2996 RMK AO2
KJVW 051835Z AUTO 19007KT 10SM BKN015 BKN049 OVC060 21/21 A2997 RMK AO2
KJVW 051815Z AUTO 19006G13KT 10SM BKN016 BKN049 OVC060 21/21 A2998 RMK AO2
KJVW 051755Z AUTO 20007G13KT 10SM BKN015 OVC055 21/21 A2998 RMK AO2
KJVW 051735Z AUTO 20007G13KT 10SM BKN015 OVC065 21/21 A2999 RMK AO2
KJVW 051715Z AUTO 19006G13KT 10SM BKN014 OVC065 21/21 A2999 RMK AO2
KJVW 051655Z AUTO 19007KT 10SM BKN013 OVC060 20/20 A3000 RMK AO2
KJVW 051635Z AUTO 18007KT 10SM BKN012 OVC060 20/20 A3001 RMK AO2
KJVW 051615Z AUTO 20007G13KT 10SM OVC011 20/20 A3002 RMK AO2
KJVW 051555Z AUTO 20006KT 10SM OVC011 19/19 A3003 RMK AO2
KJVW 051535Z AUTO 19007KT 10SM BKN011 OVC060 19/19 A3002 RMK AO2
KJVW 051515Z AUTO 20007KT 10SM OVC010 19/19 A3003 RMK AO2
KJVW 051455Z AUTO 21005G11KT 10SM OVC009 19/19 A3002 RMK AO2
KJVW 051435Z AUTO 21007G12KT 10SM OVC007 18/18 A3002 RMK AO2
KJVW 051415Z AUTO 21008KT 10SM OVC007 18/18 A3002 RMK AO2
KJVW 051355Z AUTO 22006G12KT 10SM OVC006 18/18 A3002 RMK AO2
KJVW 051335Z AUTO 20009KT 10SM OVC004 17/17 A3001 RMK AO2
KJVW 051315Z AUTO 21008KT 180V240 7SM OVC004 17/17 A3001 RMK AO2
KJVW 051255Z AUTO 20007KT 8SM OVC004 17/17 A3001 RMK AO2
KJVW 051235Z AUTO 18005KT 3SM BR OVC003 17/17 A3001 RMK AO2
KJVW 051215Z AUTO 20005KT 3SM BR OVC003 16/16 A3000 RMK AO2
KJVW 051155Z AUTO 18004KT 2 1/2SM BR OVC003 16/16 A3000 RMK AO2
KJVW 051135Z AUTO 14003KT 2SM BR OVC003 15/15 A3000 RMK AO2
KJVW 051115Z AUTO 00000KT 4SM BR OVC003 14/14 A3001 RMK AO2
KJVW 051035Z AUTO 00000KT 1 3/4SM BR OVC003 13/13 A3002 RMK AO2
KJVW 051015Z AUTO 00000KT 5SM BR OVC003 13/13 A3003 RMK AO2
KJVW 050955Z AUTO 00000KT 7SM OVC003 13/13 A3003 RMK AO2
KJVW 050935Z AUTO 00000KT 3SM BR OVC003 13/13 A3004 RMK AO2
KJVW 050915Z AUTO 00000KT 7SM OVC004 13/13 A3005 RMK AO2
KJVW 050855Z AUTO 00000KT 10SM OVC004 13/13 A3005 RMK AO2
KJVW 050835Z AUTO 00000KT 10SM OVC005 14/14 A3005 RMK AO2
KJVW 050815Z AUTO 00000KT 10SM OVC006 14/14 A3006 RMK AO2
KJVW 050735Z AUTO 00000KT 10SM OVC007 13/13 A3007 RMK AO2
KJVW 050715Z AUTO 29004KT 10SM OVC008 13/13 A3007 RMK AO2
KJVW 050655Z AUTO 00000KT 10SM OVC009 14/14 A3007 RMK AO2
KJVW 050635Z AUTO 00000KT 10SM OVC008 13/13 A3008 RMK AO2
KJVW 050615Z AUTO 00000KT 10SM OVC007 14/14 A3008 RMK AO2
KJVW 050555Z AUTO 00000KT 10SM OVC009 14/14 A3009 RMK AO2
KJVW 050535Z AUTO 00000KT 10SM OVC010 13/13 A3010 RMK AO2
KJVW 050515Z AUTO 00000KT 10SM OVC010 13/13 A3009 RMK AO2
KJVW 050455Z AUTO 00000KT 10SM SCT010 OVC060 14/14 A3010 RMK AO2
KJVW 050435Z AUTO 19005KT 10SM OVC060 13/13 A3010 RMK AO2
KJVW 050415Z AUTO 00000KT 10SM OVC060 13/13 A3011 RMK AO2
KJVW 050355Z AUTO 00000KT 10SM OVC065 13/13 A3011 RMK AO2
KJVW 050335Z AUTO 00000KT 10SM FEW027 OVC065 13/13 A3012 RMK AO2
KJVW 050315Z AUTO 00000KT 10SM FEW018 BKN027 OVC065 13/13 A3013 RMK AO2
KJVW 050255Z AUTO 00000KT 10SM SCT019 OVC026 13/13 A3014 RMK AO2
KJVW 050235Z AUTO 00000KT 10SM SCT020 OVC026 13/13 A3015 RMK AO2
KJVW 050215Z AUTO 00000KT 10SM OVC024 13/13 A3015 RMK AO2
KJVW 050155Z AUTO 00000KT 10SM OVC023 13/13 A3017 RMK AO2
KJVW 050135Z AUTO 33004KT 10SM OVC024 13/13 A3017 RMK AO2
KJVW 050055Z AUTO 31006KT 10SM OVC024 15/15 A3016 RMK AO2
KJVW 050035Z AUTO VRB04KT 10SM OVC024 16/16 A3016 RMK AO2
KJVW 050015Z AUTO 00000KT 10SM OVC024 16/16 A3016 RMK AO2
KJVW 042335Z AUTO 00000KT 10SM OVC024 16/16 A3015 RMK AO2
KJVW 042315Z AUTO 33005KT 10SM BKN024 OVC031 17/16 A3016 RMK AO2
KJVW 042255Z AUTO 36003KT 10SM FEW023 OVC031 17/16 A3015 RMK AO2
KJVW 042235Z AUTO 00000KT 10SM FEW023 OVC031 17/15 A3015 RMK AO2
KJVW 042215Z AUTO 00000KT 10SM BKN023 OVC030 18/15 A3015 RMK AO2
KJVW 042155Z AUTO 11004KT 10SM OVC022 18/15 A3014 RMK AO2
KJVW 042135Z AUTO 00000KT 10SM SCT022 SCT034 18/15 A3015 RMK AO2
KJVW 042115Z AUTO 16006KT 10SM FEW024 SCT046 18/15 A3014 RMK AO2
KJVW 042055Z AUTO 00000KT 10SM BKN024 OVC046 17/15 A3015 RMK AO2
KJVW 042035Z AUTO 00000KT 10SM OVC024 17/15 A3016 RMK AO2
KJVW 042015Z AUTO 00000KT 10SM OVC025 16/15 A3018 RMK AO2
KJVW 041955Z AUTO 00000KT 10SM OVC025 16/15 A3019 RMK AO2
KJVW 041935Z AUTO 00000KT 10SM OVC021 16/15 A3020 RMK AO2
KJVW 041915Z AUTO 00000KT 10SM OVC017 15/15 A3021 RMK AO2
KJVW 041855Z AUTO 00000KT 10SM BKN018 OVC026 15/15 A3023 RMK AO2
KJVW 041835Z AUTO 34004KT 10SM BKN021 BKN026 OVC036 15/15 A3024 RMK AO2
KJVW 041815Z AUTO 34004KT 10SM FEW026 BKN037 OVC055 15/15 A3025 RMK AO2
KJVW 041755Z AUTO 00000KT 10SM OVC055 15/15 A3025 RMK AO2
KJVW 041555Z AUTO 09003KT 10SM SCT036 OVC050 12/12 A3031 RMK AO2
KJVW 041535Z AUTO 00000KT 10SM BKN029 OVC036 11/11 A3032 RMK AO2
KJVW 041515Z AUTO 00000KT 10SM SCT013 OVC029 11/11 A3032 RMK AO2
KJVW 041455Z AUTO VRB03KT 10SM OVC013 11/11 A3033 RMK AO2
KJVW 041435Z AUTO 34005KT 10SM BKN013 OVC041 11/11 A3032 RMK AO2
KJVW 041415Z AUTO 00000KT 10SM SCT012 OVC041 11/11 A3030 RMK AO2
KJVW 041355Z AUTO 36003KT 10SM OVC011 10/10 A3031 RMK AO2
KJVW 041335Z AUTO 35003KT 10SM OVC010 10/10 A3030 RMK AO2
KJVW 041315Z AUTO 00000KT 10SM OVC008 10/10 A3030 RMK AO2
KJVW 041255Z AUTO 35004KT 10SM OVC008 10/10 A3029 RMK AO2
KJVW 041235Z AUTO 00000KT 10SM OVC008 10/10 A3029 RMK AO2
KJVW 041215Z AUTO 00000KT 10SM OVC009 10/10 A3028 RMK AO2
KJVW 041155Z AUTO 35004KT 10SM OVC009 10/10 A3029 RMK AO2
KJVW 041135Z AUTO 31003KT 10SM OVC008 10/10 A3028 RMK AO2
KJVW 041115Z AUTO 00000KT 10SM OVC008 10/10 A3027 RMK AO2
KJVW 041055Z AUTO 00000KT 10SM OVC008 10/10 A3027 RMK AO2
KJVW 041035Z AUTO 00000KT 10SM OVC008 10/10 A3027 RMK AO2